sensor_id;sensor_type;location;lat;lon;timestamp;P1;durP1;ratioP1;P2;durP2;ratioP2
27857;SDS011;16852;51.446;6.528;2024-03-17T00:01:35;6.18;;;3.85;;
27857;SDS011;16852;51.446;6.528;2024-03-17T00:03:36;5.68;;;3.80;;
27857;SDS011;16852;51.446;6.528;2024-03-17T00:05:37;7.88;;;4.35;;
27857;SDS011;16852;51.446;6.528;2024-03-17T00:07:38;5.18;;;3.83;;
27857;SDS011;16852;51.446;6.528;2024-03-17T00:09:40;8.50;;;4.05;;
27857;SDS011;16852;51.446;6.528;2024-03-17T00:11:41;4.57;;;3.47;;
27857;SDS011;16852;51.446;6.528;2024-03-17T00:13:41;5.57;;;3.70;;
27857;SDS011;16852;51.446;6.528;2024-03-17T00:15:42;7.95;;;4.57;;
27857;SDS011;16852;51.446;6.528;2024-03-17T00:17:43;6.13;;;3.78;;
27857;SDS011;16852;51.446;6.528;2024-03-17T00:19:44;6.53;;;3.65;;
27857;SDS011;16852;51.446;6.528;2024-03-17T00:21:44;7.20;;;3.72;;
27857;SDS011;16852;51.446;6.528;2024-03-17T00:23:47;5.30;;;3.78;;
27857;SDS011;16852;51.446;6.528;2024-03-17T00:25:49;5.82;;;3.80;;
27857;SDS011;16852;51.446;6.528;2024-03-17T00:27:50;5.53;;;3.53;;
27857;SDS011;16852;51.446;6.528;2024-03-17T00:29:55;5.35;;;3.70;;
27857;SDS011;16852;51.446;6.528;2024-03-17T00:31:56;5.10;;;3.50;;
27857;SDS011;16852;51.446;6.528;2024-03-17T00:33:57;7.18;;;3.60;;
27857;SDS011;16852;51.446;6.528;2024-03-17T00:35:59;8.05;;;3.80;;
27857;SDS011;16852;51.446;6.528;2024-03-17T00:37:59;4.78;;;3.65;;
27857;SDS011;16852;51.446;6.528;2024-03-17T00:40:03;7.95;;;4.10;;
27857;SDS011;16852;51.446;6.528;2024-03-17T00:42:06;5.60;;;4.07;;
27857;SDS011;16852;51.446;6.528;2024-03-17T00:44:06;7.72;;;3.63;;
27857;SDS011;16852;51.446;6.528;2024-03-17T00:46:07;6.18;;;3.53;;
27857;SDS011;16852;51.446;6.528;2024-03-17T00:48:08;5.15;;;3.20;;
27857;SDS011;16852;51.446;6.528;2024-03-17T00:50:09;4.85;;;3.22;;
27857;SDS011;16852;51.446;6.528;2024-03-17T00:52:11;6.30;;;3.58;;
27857;SDS011;16852;51.446;6.528;2024-03-17T00:54:12;4.85;;;3.50;;
27857;SDS011;16852;51.446;6.528;2024-03-17T00:56:12;6.35;;;3.30;;
27857;SDS011;16852;51.446;6.528;2024-03-17T00:58:13;5.20;;;3.45;;
27857;SDS011;16852;51.446;6.528;2024-03-17T01:00:13;4.88;;;3.33;;
27857;SDS011;16852;51.446;6.528;2024-03-17T01:02:15;5.93;;;3.65;;
27857;SDS011;16852;51.446;6.528;2024-03-17T01:04:16;7.32;;;3.60;;
27857;SDS011;16852;51.446;6.528;2024-03-17T01:06:17;5.90;;;3.53;;
27857;SDS011;16852;51.446;6.528;2024-03-17T01:08:18;5.32;;;3.60;;
27857;SDS011;16852;51.446;6.528;2024-03-17T01:10:19;5.55;;;3.53;;
27857;SDS011;16852;51.446;6.528;2024-03-17T01:12:19;6.18;;;3.30;;
27857;SDS011;16852;51.446;6.528;2024-03-17T01:14:20;6.00;;;3.17;;
27857;SDS011;16852;51.446;6.528;2024-03-17T01:16:20;5.45;;;3.22;;
27857;SDS011;16852;51.446;6.528;2024-03-17T01:18:21;6.40;;;3.38;;
27857;SDS011;16852;51.446;6.528;2024-03-17T01:20:22;7.68;;;4.25;;
27857;SDS011;16852;51.446;6.528;2024-03-17T01:22:22;8.75;;;3.72;;
27857;SDS011;16852;51.446;6.528;2024-03-17T01:24:23;7.53;;;4.38;;
27857;SDS011;16852;51.446;6.528;2024-03-17T01:26:24;9.05;;;4.47;;
27857;SDS011;16852;51.446;6.528;2024-03-17T01:28:25;9.57;;;4.55;;
27857;SDS011;16852;51.446;6.528;2024-03-17T01:30:27;8.13;;;3.80;;
27857;SDS011;16852;51.446;6.528;2024-03-17T01:32:27;6.35;;;3.92;;
27857;SDS011;16852;51.446;6.528;2024-03-17T01:34:28;7.88;;;4.30;;
27857;SDS011;16852;51.446;6.528;2024-03-17T01:36:28;8.98;;;4.30;;
27857;SDS011;16852;51.446;6.528;2024-03-17T01:38:29;6.50;;;4.18;;
27857;SDS011;16852;51.446;6.528;2024-03-17T01:40:30;9.25;;;4.60;;
27857;SDS011;16852;51.446;6.528;2024-03-17T01:42:31;6.65;;;4.10;;
27857;SDS011;16852;51.446;6.528;2024-03-17T01:44:31;7.38;;;3.90;;
27857;SDS011;16852;51.446;6.528;2024-03-17T01:46:32;8.40;;;4.07;;
27857;SDS011;16852;51.446;6.528;2024-03-17T01:48:33;10.00;;;4.70;;
27857;SDS011;16852;51.446;6.528;2024-03-17T01:50:35;8.10;;;4.10;;
27857;SDS011;16852;51.446;6.528;2024-03-17T01:52:36;6.70;;;4.20;;
27857;SDS011;16852;51.446;6.528;2024-03-17T01:54:37;7.32;;;3.83;;
27857;SDS011;16852;51.446;6.528;2024-03-17T01:56:38;7.03;;;4.10;;
27857;SDS011;16852;51.446;6.528;2024-03-17T01:58:40;5.97;;;4.05;;
27857;SDS011;16852;51.446;6.528;2024-03-17T02:00:44;8.75;;;4.43;;
27857;SDS011;16852;51.446;6.528;2024-03-17T02:02:45;7.40;;;3.80;;
27857;SDS011;16852;51.446;6.528;2024-03-17T02:04:46;5.72;;;3.75;;
27857;SDS011;16852;51.446;6.528;2024-03-17T02:06:47;7.63;;;4.10;;
27857;SDS011;16852;51.446;6.528;2024-03-17T02:08:49;6.88;;;3.75;;
27857;SDS011;16852;51.446;6.528;2024-03-17T02:10:54;7.00;;;3.80;;
27857;SDS011;16852;51.446;6.528;2024-03-17T02:12:55;7.20;;;3.80;;
27857;SDS011;16852;51.446;6.528;2024-03-17T02:14:56;7.22;;;4.05;;
27857;SDS011;16852;51.446;6.528;2024-03-17T02:16:59;7.70;;;4.13;;
27857;SDS011;16852;51.446;6.528;2024-03-17T02:19:00;5.97;;;3.85;;
27857;SDS011;16852;51.446;6.528;2024-03-17T02:21:01;6.32;;;3.70;;
27857;SDS011;16852;51.446;6.528;2024-03-17T02:23:01;6.72;;;3.85;;
27857;SDS011;16852;51.446;6.528;2024-03-17T02:25:02;7.75;;;3.85;;
27857;SDS011;16852;51.446;6.528;2024-03-17T02:27:03;7.40;;;3.80;;
27857;SDS011;16852;51.446;6.528;2024-03-17T02:29:04;9.23;;;3.65;;
27857;SDS011;16852;51.446;6.528;2024-03-17T02:31:05;8.63;;;4.50;;
27857;SDS011;16852;51.446;6.528;2024-03-17T02:33:07;5.32;;;3.47;;
27857;SDS011;16852;51.446;6.528;2024-03-17T02:35:08;8.70;;;4.10;;
27857;SDS011;16852;51.446;6.528;2024-03-17T02:37:11;7.20;;;4.07;;
27857;SDS011;16852;51.446;6.528;2024-03-17T02:39:12;8.10;;;4.30;;
27857;SDS011;16852;51.446;6.528;2024-03-17T02:41:31;8.75;;;4.20;;
27857;SDS011;16852;51.446;6.528;2024-03-17T02:43:31;6.47;;;4.15;;
27857;SDS011;16852;51.446;6.528;2024-03-17T02:45:32;7.75;;;4.43;;
27857;SDS011;16852;51.446;6.528;2024-03-17T02:47:33;6.57;;;4.00;;
27857;SDS011;16852;51.446;6.528;2024-03-17T02:49:33;7.57;;;4.28;;
27857;SDS011;16852;51.446;6.528;2024-03-17T02:51:39;9.32;;;4.13;;
27857;SDS011;16852;51.446;6.528;2024-03-17T02:53:43;6.30;;;3.80;;
27857;SDS011;16852;51.446;6.528;2024-03-17T02:55:47;8.05;;;4.05;;
27857;SDS011;16852;51.446;6.528;2024-03-17T02:57:48;8.48;;;4.13;;
27857;SDS011;16852;51.446;6.528;2024-03-17T02:59:48;6.35;;;3.45;;
27857;SDS011;16852;51.446;6.528;2024-03-17T03:01:49;7.50;;;4.18;;
27857;SDS011;16852;51.446;6.528;2024-03-17T03:03:49;7.13;;;4.15;;
27857;SDS011;16852;51.446;6.528;2024-03-17T03:05:50;5.75;;;4.05;;
27857;SDS011;16852;51.446;6.528;2024-03-17T03:07:52;8.45;;;4.00;;
27857;SDS011;16852;51.446;6.528;2024-03-17T03:09:53;6.68;;;3.58;;
27857;SDS011;16852;51.446;6.528;2024-03-17T03:11:54;7.05;;;4.28;;
27857;SDS011;16852;51.446;6.528;2024-03-17T03:13:54;5.97;;;4.10;;
27857;SDS011;16852;51.446;6.528;2024-03-17T03:15:55;6.43;;;3.88;;
27857;SDS011;16852;51.446;6.528;2024-03-17T03:17:55;7.43;;;3.85;;
27857;SDS011;16852;51.446;6.528;2024-03-17T03:19:56;7.35;;;4.25;;
27857;SDS011;16852;51.446;6.528;2024-03-17T03:21:57;8.32;;;4.10;;
27857;SDS011;16852;51.446;6.528;2024-03-17T03:23:57;5.97;;;3.63;;
27857;SDS011;16852;51.446;6.528;2024-03-17T03:25:58;9.25;;;3.80;;
27857;SDS011;16852;51.446;6.528;2024-03-17T03:28:00;11.32;;;4.28;;
27857;SDS011;16852;51.446;6.528;2024-03-17T03:30:02;8.20;;;3.83;;
27857;SDS011;16852;51.446;6.528;2024-03-17T03:32:03;6.53;;;3.95;;
27857;SDS011;16852;51.446;6.528;2024-03-17T03:34:04;9.32;;;3.63;;
27857;SDS011;16852;51.446;6.528;2024-03-17T03:36:11;10.52;;;4.82;;
27857;SDS011;16852;51.446;6.528;2024-03-17T03:38:13;8.15;;;4.10;;
27857;SDS011;16852;51.446;6.528;2024-03-17T03:40:14;7.50;;;4.05;;
27857;SDS011;16852;51.446;6.528;2024-03-17T03:42:18;8.20;;;3.65;;
27857;SDS011;16852;51.446;6.528;2024-03-17T03:44:18;7.45;;;4.18;;
27857;SDS011;16852;51.446;6.528;2024-03-17T03:46:19;7.45;;;4.28;;
27857;SDS011;16852;51.446;6.528;2024-03-17T03:48:20;7.45;;;4.00;;
27857;SDS011;16852;51.446;6.528;2024-03-17T03:50:21;6.97;;;4.13;;
27857;SDS011;16852;51.446;6.528;2024-03-17T03:52:23;8.60;;;4.20;;
27857;SDS011;16852;51.446;6.528;2024-03-17T03:54:25;6.80;;;4.13;;
27857;SDS011;16852;51.446;6.528;2024-03-17T03:56:25;10.43;;;4.40;;
27857;SDS011;16852;51.446;6.528;2024-03-17T03:58:26;7.22;;;3.80;;
27857;SDS011;16852;51.446;6.528;2024-03-17T04:00:27;9.35;;;4.88;;
27857;SDS011;16852;51.446;6.528;2024-03-17T04:02:31;10.85;;;4.90;;
27857;SDS011;16852;51.446;6.528;2024-03-17T04:04:33;9.32;;;4.82;;
27857;SDS011;16852;51.446;6.528;2024-03-17T04:06:34;9.55;;;5.05;;
27857;SDS011;16852;51.446;6.528;2024-03-17T04:08:37;8.23;;;4.15;;
27857;SDS011;16852;51.446;6.528;2024-03-17T04:10:43;9.35;;;5.03;;
27857;SDS011;16852;51.446;6.528;2024-03-17T04:12:44;11.68;;;5.60;;
27857;SDS011;16852;51.446;6.528;2024-03-17T04:14:45;12.50;;;5.15;;
27857;SDS011;16852;51.446;6.528;2024-03-17T04:16:46;8.40;;;4.97;;
27857;SDS011;16852;51.446;6.528;2024-03-17T04:18:47;9.90;;;5.15;;
27857;SDS011;16852;51.446;6.528;2024-03-17T04:20:47;12.10;;;5.35;;
27857;SDS011;16852;51.446;6.528;2024-03-17T04:22:48;10.43;;;5.57;;
27857;SDS011;16852;51.446;6.528;2024-03-17T04:24:49;9.15;;;4.95;;
27857;SDS011;16852;51.446;6.528;2024-03-17T04:26:53;10.35;;;5.72;;
27857;SDS011;16852;51.446;6.528;2024-03-17T04:28:54;10.82;;;5.50;;
27857;SDS011;16852;51.446;6.528;2024-03-17T04:31:03;11.50;;;5.85;;
27857;SDS011;16852;51.446;6.528;2024-03-17T04:33:05;9.43;;;5.15;;
27857;SDS011;16852;51.446;6.528;2024-03-17T04:35:06;9.35;;;5.22;;
27857;SDS011;16852;51.446;6.528;2024-03-17T04:37:07;9.65;;;4.93;;
27857;SDS011;16852;51.446;6.528;2024-03-17T04:39:08;8.25;;;5.10;;
27857;SDS011;16852;51.446;6.528;2024-03-17T04:41:08;8.82;;;5.13;;
27857;SDS011;16852;51.446;6.528;2024-03-17T04:43:09;8.52;;;4.95;;
27857;SDS011;16852;51.446;6.528;2024-03-17T04:45:10;15.57;;;5.35;;
27857;SDS011;16852;51.446;6.528;2024-03-17T04:47:11;9.45;;;5.10;;
27857;SDS011;16852;51.446;6.528;2024-03-17T04:49:12;8.98;;;5.30;;
27857;SDS011;16852;51.446;6.528;2024-03-17T04:51:16;10.02;;;5.05;;
27857;SDS011;16852;51.446;6.528;2024-03-17T04:53:17;9.27;;;4.95;;
27857;SDS011;16852;51.446;6.528;2024-03-17T04:55:17;8.63;;;5.20;;
27857;SDS011;16852;51.446;6.528;2024-03-17T04:57:19;9.20;;;4.70;;
27857;SDS011;16852;51.446;6.528;2024-03-17T04:59:19;9.07;;;5.18;;
27857;SDS011;16852;51.446;6.528;2024-03-17T05:01:20;8.10;;;5.18;;
27857;SDS011;16852;51.446;6.528;2024-03-17T05:03:20;7.95;;;5.38;;
27857;SDS011;16852;51.446;6.528;2024-03-17T05:05:21;8.60;;;5.30;;
27857;SDS011;16852;51.446;6.528;2024-03-17T05:07:23;10.73;;;5.47;;
27857;SDS011;16852;51.446;6.528;2024-03-17T05:09:24;9.50;;;5.32;;
27857;SDS011;16852;51.446;6.528;2024-03-17T05:11:25;9.43;;;5.55;;
27857;SDS011;16852;51.446;6.528;2024-03-17T05:13:28;11.95;;;5.60;;
27857;SDS011;16852;51.446;6.528;2024-03-17T05:15:29;8.85;;;5.10;;
27857;SDS011;16852;51.446;6.528;2024-03-17T05:17:30;10.93;;;5.03;;
27857;SDS011;16852;51.446;6.528;2024-03-17T05:19:30;11.65;;;5.20;;
27857;SDS011;16852;51.446;6.528;2024-03-17T05:21:31;8.30;;;4.82;;
27857;SDS011;16852;51.446;6.528;2024-03-17T05:23:33;7.10;;;4.85;;
27857;SDS011;16852;51.446;6.528;2024-03-17T05:25:34;9.80;;;4.88;;
27857;SDS011;16852;51.446;6.528;2024-03-17T05:27:37;7.68;;;4.43;;
27857;SDS011;16852;51.446;6.528;2024-03-17T05:29:37;9.35;;;5.45;;
27857;SDS011;16852;51.446;6.528;2024-03-17T05:31:38;8.18;;;5.38;;
27857;SDS011;16852;51.446;6.528;2024-03-17T05:33:39;9.43;;;5.15;;
27857;SDS011;16852;51.446;6.528;2024-03-17T05:35:40;7.85;;;4.78;;
27857;SDS011;16852;51.446;6.528;2024-03-17T05:37:40;10.18;;;5.10;;
27857;SDS011;16852;51.446;6.528;2024-03-17T05:39:41;7.50;;;5.00;;
27857;SDS011;16852;51.446;6.528;2024-03-17T05:41:42;9.77;;;5.25;;
27857;SDS011;16852;51.446;6.528;2024-03-17T05:43:43;9.82;;;5.57;;
27857;SDS011;16852;51.446;6.528;2024-03-17T05:45:44;8.93;;;5.53;;
27857;SDS011;16852;51.446;6.528;2024-03-17T05:47:44;8.57;;;5.60;;
27857;SDS011;16852;51.446;6.528;2024-03-17T05:49:45;6.20;;;4.53;;
27857;SDS011;16852;51.446;6.528;2024-03-17T05:51:46;7.97;;;4.82;;
27857;SDS011;16852;51.446;6.528;2024-03-17T05:53:46;10.15;;;5.22;;
27857;SDS011;16852;51.446;6.528;2024-03-17T05:55:47;7.10;;;4.75;;
27857;SDS011;16852;51.446;6.528;2024-03-17T05:57:47;7.75;;;4.70;;
27857;SDS011;16852;51.446;6.528;2024-03-17T05:59:48;10.55;;;5.30;;
27857;SDS011;16852;51.446;6.528;2024-03-17T06:01:48;7.93;;;5.43;;
27857;SDS011;16852;51.446;6.528;2024-03-17T06:03:49;10.00;;;5.63;;
27857;SDS011;16852;51.446;6.528;2024-03-17T06:05:50;12.55;;;5.80;;
27857;SDS011;16852;51.446;6.528;2024-03-17T06:07:50;9.70;;;5.43;;
27857;SDS011;16852;51.446;6.528;2024-03-17T06:09:51;8.20;;;4.93;;
27857;SDS011;16852;51.446;6.528;2024-03-17T06:11:51;10.48;;;5.43;;
27857;SDS011;16852;51.446;6.528;2024-03-17T06:13:52;9.70;;;4.88;;
27857;SDS011;16852;51.446;6.528;2024-03-17T06:15:52;8.68;;;4.90;;
27857;SDS011;16852;51.446;6.528;2024-03-17T06:17:53;9.73;;;5.88;;
27857;SDS011;16852;51.446;6.528;2024-03-17T06:19:54;13.13;;;5.57;;
27857;SDS011;16852;51.446;6.528;2024-03-17T06:21:57;10.07;;;5.97;;
27857;SDS011;16852;51.446;6.528;2024-03-17T06:23:57;8.27;;;5.35;;
27857;SDS011;16852;51.446;6.528;2024-03-17T06:25:58;10.18;;;5.22;;
27857;SDS011;16852;51.446;6.528;2024-03-17T06:27:59;8.57;;;5.07;;
27857;SDS011;16852;51.446;6.528;2024-03-17T06:30:01;9.93;;;5.78;;
27857;SDS011;16852;51.446;6.528;2024-03-17T06:32:04;9.50;;;4.90;;
27857;SDS011;16852;51.446;6.528;2024-03-17T06:34:04;9.38;;;5.43;;
27857;SDS011;16852;51.446;6.528;2024-03-17T06:36:05;10.38;;;5.90;;
27857;SDS011;16852;51.446;6.528;2024-03-17T06:38:06;10.15;;;6.00;;
27857;SDS011;16852;51.446;6.528;2024-03-17T06:40:12;10.68;;;5.65;;
27857;SDS011;16852;51.446;6.528;2024-03-17T06:42:14;8.13;;;5.35;;
27857;SDS011;16852;51.446;6.528;2024-03-17T06:44:14;8.23;;;5.32;;
27857;SDS011;16852;51.446;6.528;2024-03-17T06:46:15;6.90;;;5.50;;
27857;SDS011;16852;51.446;6.528;2024-03-17T06:48:16;10.00;;;5.40;;
27857;SDS011;16852;51.446;6.528;2024-03-17T06:50:16;11.50;;;5.47;;
27857;SDS011;16852;51.446;6.528;2024-03-17T06:52:17;7.68;;;5.45;;
27857;SDS011;16852;51.446;6.528;2024-03-17T06:54:18;9.20;;;4.97;;
27857;SDS011;16852;51.446;6.528;2024-03-17T06:56:19;9.97;;;5.60;;
27857;SDS011;16852;51.446;6.528;2024-03-17T06:58:21;7.53;;;5.07;;
27857;SDS011;16852;51.446;6.528;2024-03-17T07:02:25;9.40;;;5.47;;
27857;SDS011;16852;51.446;6.528;2024-03-17T07:04:25;11.00;;;5.90;;
27857;SDS011;16852;51.446;6.528;2024-03-17T07:06:26;7.75;;;5.05;;
27857;SDS011;16852;51.446;6.528;2024-03-17T07:08:27;10.73;;;4.88;;
27857;SDS011;16852;51.446;6.528;2024-03-17T07:10:28;10.27;;;5.47;;
27857;SDS011;16852;51.446;6.528;2024-03-17T07:12:28;7.68;;;5.18;;
27857;SDS011;16852;51.446;6.528;2024-03-17T07:14:29;8.80;;;5.20;;
27857;SDS011;16852;51.446;6.528;2024-03-17T07:16:31;6.85;;;4.53;;
27857;SDS011;16852;51.446;6.528;2024-03-17T07:18:32;7.50;;;4.45;;
27857;SDS011;16852;51.446;6.528;2024-03-17T07:20:33;8.45;;;4.97;;
27857;SDS011;16852;51.446;6.528;2024-03-17T07:22:34;7.25;;;4.65;;
27857;SDS011;16852;51.446;6.528;2024-03-17T07:24:35;7.53;;;5.10;;
27857;SDS011;16852;51.446;6.528;2024-03-17T07:26:36;11.23;;;5.10;;
27857;SDS011;16852;51.446;6.528;2024-03-17T07:28:36;9.30;;;4.93;;
27857;SDS011;16852;51.446;6.528;2024-03-17T07:30:48;6.63;;;4.32;;
27857;SDS011;16852;51.446;6.528;2024-03-17T07:32:50;6.60;;;4.38;;
27857;SDS011;16852;51.446;6.528;2024-03-17T07:34:50;7.13;;;4.55;;
27857;SDS011;16852;51.446;6.528;2024-03-17T07:36:51;7.07;;;4.30;;
27857;SDS011;16852;51.446;6.528;2024-03-17T07:38:52;9.90;;;4.57;;
27857;SDS011;16852;51.446;6.528;2024-03-17T07:40:57;5.45;;;4.03;;
27857;SDS011;16852;51.446;6.528;2024-03-17T07:43:01;8.30;;;4.05;;
27857;SDS011;16852;51.446;6.528;2024-03-17T07:45:02;4.78;;;3.60;;
27857;SDS011;16852;51.446;6.528;2024-03-17T07:47:04;10.10;;;4.18;;
27857;SDS011;16852;51.446;6.528;2024-03-17T07:49:05;8.63;;;3.65;;
27857;SDS011;16852;51.446;6.528;2024-03-17T07:51:06;5.55;;;3.80;;
27857;SDS011;16852;51.446;6.528;2024-03-17T07:53:14;7.28;;;4.18;;
27857;SDS011;16852;51.446;6.528;2024-03-17T07:55:15;6.15;;;3.75;;
27857;SDS011;16852;51.446;6.528;2024-03-17T07:57:15;12.73;;;4.35;;
27857;SDS011;16852;51.446;6.528;2024-03-17T07:59:16;7.05;;;3.92;;
27857;SDS011;16852;51.446;6.528;2024-03-17T08:01:17;7.05;;;3.90;;
27857;SDS011;16852;51.446;6.528;2024-03-17T08:03:18;6.50;;;4.05;;
27857;SDS011;16852;51.446;6.528;2024-03-17T08:05:19;8.18;;;4.75;;
27857;SDS011;16852;51.446;6.528;2024-03-17T08:07:20;7.63;;;4.57;;
27857;SDS011;16852;51.446;6.528;2024-03-17T08:09:20;6.10;;;3.85;;
27857;SDS011;16852;51.446;6.528;2024-03-17T08:11:22;7.72;;;3.67;;
27857;SDS011;16852;51.446;6.528;2024-03-17T08:13:24;5.53;;;4.05;;
27857;SDS011;16852;51.446;6.528;2024-03-17T08:15:25;5.45;;;3.60;;
27857;SDS011;16852;51.446;6.528;2024-03-17T08:17:26;5.20;;;3.60;;
27857;SDS011;16852;51.446;6.528;2024-03-17T08:19:26;5.00;;;2.90;;
27857;SDS011;16852;51.446;6.528;2024-03-17T08:21:28;6.10;;;3.50;;
27857;SDS011;16852;51.446;6.528;2024-03-17T08:23:29;4.85;;;3.17;;
27857;SDS011;16852;51.446;6.528;2024-03-17T08:25:30;6.57;;;3.90;;
27857;SDS011;16852;51.446;6.528;2024-03-17T08:27:31;7.68;;;3.47;;
27857;SDS011;16852;51.446;6.528;2024-03-17T08:29:32;6.57;;;3.38;;
27857;SDS011;16852;51.446;6.528;2024-03-17T08:31:33;5.32;;;3.63;;
27857;SDS011;16852;51.446;6.528;2024-03-17T08:33:33;6.15;;;3.83;;
27857;SDS011;16852;51.446;6.528;2024-03-17T08:35:34;7.80;;;3.60;;
27857;SDS011;16852;51.446;6.528;2024-03-17T08:39:37;6.35;;;3.40;;
27857;SDS011;16852;51.446;6.528;2024-03-17T08:41:38;5.65;;;3.38;;
27857;SDS011;16852;51.446;6.528;2024-03-17T08:43:39;6.30;;;3.67;;
27857;SDS011;16852;51.446;6.528;2024-03-17T08:45:41;6.37;;;3.40;;
27857;SDS011;16852;51.446;6.528;2024-03-17T08:47:42;5.80;;;3.58;;
27857;SDS011;16852;51.446;6.528;2024-03-17T08:49:42;5.05;;;3.22;;
27857;SDS011;16852;51.446;6.528;2024-03-17T08:51:43;6.32;;;3.30;;
27857;SDS011;16852;51.446;6.528;2024-03-17T08:53:43;6.25;;;3.50;;
27857;SDS011;16852;51.446;6.528;2024-03-17T08:55:44;6.25;;;3.63;;
27857;SDS011;16852;51.446;6.528;2024-03-17T08:57:45;4.97;;;3.35;;
27857;SDS011;16852;51.446;6.528;2024-03-17T08:59:46;5.72;;;3.28;;
27857;SDS011;16852;51.446;6.528;2024-03-17T09:01:46;5.63;;;3.85;;
27857;SDS011;16852;51.446;6.528;2024-03-17T09:03:47;5.97;;;3.75;;
27857;SDS011;16852;51.446;6.528;2024-03-17T09:05:49;7.13;;;4.05;;
27857;SDS011;16852;51.446;6.528;2024-03-17T09:07:50;7.00;;;3.78;;
27857;SDS011;16852;51.446;6.528;2024-03-17T09:09:51;5.90;;;4.07;;
27857;SDS011;16852;51.446;6.528;2024-03-17T09:11:51;7.05;;;4.20;;
27857;SDS011;16852;51.446;6.528;2024-03-17T09:13:52;7.45;;;4.03;;
27857;SDS011;16852;51.446;6.528;2024-03-17T09:15:57;5.72;;;3.70;;
27857;SDS011;16852;51.446;6.528;2024-03-17T09:18:01;5.78;;;3.65;;
27857;SDS011;16852;51.446;6.528;2024-03-17T09:20:03;8.65;;;4.50;;
27857;SDS011;16852;51.446;6.528;2024-03-17T09:22:04;6.97;;;3.85;;
27857;SDS011;16852;51.446;6.528;2024-03-17T09:24:05;9.93;;;4.28;;
27857;SDS011;16852;51.446;6.528;2024-03-17T09:28:09;7.28;;;3.70;;
27857;SDS011;16852;51.446;6.528;2024-03-17T09:30:11;6.47;;;3.72;;
27857;SDS011;16852;51.446;6.528;2024-03-17T09:32:12;4.50;;;3.58;;
27857;SDS011;16852;51.446;6.528;2024-03-17T09:34:17;4.97;;;3.50;;
27857;SDS011;16852;51.446;6.528;2024-03-17T09:36:18;5.82;;;4.15;;
27857;SDS011;16852;51.446;6.528;2024-03-17T09:38:20;6.80;;;4.22;;
27857;SDS011;16852;51.446;6.528;2024-03-17T09:40:21;6.85;;;4.63;;
27857;SDS011;16852;51.446;6.528;2024-03-17T09:42:22;7.40;;;4.13;;
27857;SDS011;16852;51.446;6.528;2024-03-17T09:44:24;7.68;;;4.43;;
27857;SDS011;16852;51.446;6.528;2024-03-17T09:46:25;7.20;;;4.50;;
27857;SDS011;16852;51.446;6.528;2024-03-17T09:48:28;6.82;;;3.80;;
27857;SDS011;16852;51.446;6.528;2024-03-17T09:50:28;8.00;;;4.00;;
27857;SDS011;16852;51.446;6.528;2024-03-17T09:54:33;7.57;;;4.55;;
27857;SDS011;16852;51.446;6.528;2024-03-17T09:56:34;6.38;;;4.53;;
27857;SDS011;16852;51.446;6.528;2024-03-17T09:58:35;5.88;;;3.70;;
27857;SDS011;16852;51.446;6.528;2024-03-17T10:00:36;5.90;;;3.90;;
27857;SDS011;16852;51.446;6.528;2024-03-17T10:02:37;8.75;;;4.35;;
27857;SDS011;16852;51.446;6.528;2024-03-17T10:04:43;5.93;;;4.30;;
27857;SDS011;16852;51.446;6.528;2024-03-17T10:06:44;6.95;;;4.50;;
27857;SDS011;16852;51.446;6.528;2024-03-17T10:10:52;7.15;;;4.78;;
27857;SDS011;16852;51.446;6.528;2024-03-17T10:12:54;5.65;;;4.05;;
27857;SDS011;16852;51.446;6.528;2024-03-17T10:15:00;5.75;;;4.15;;
27857;SDS011;16852;51.446;6.528;2024-03-17T10:17:02;8.35;;;4.90;;
27857;SDS011;16852;51.446;6.528;2024-03-17T10:21:16;6.22;;;4.28;;
27857;SDS011;16852;51.446;6.528;2024-03-17T10:23:27;6.93;;;4.53;;
27857;SDS011;16852;51.446;6.528;2024-03-17T10:25:28;6.40;;;4.40;;
27857;SDS011;16852;51.446;6.528;2024-03-17T10:27:30;7.78;;;5.00;;
27857;SDS011;16852;51.446;6.528;2024-03-17T10:29:32;6.60;;;4.82;;
27857;SDS011;16852;51.446;6.528;2024-03-17T10:31:38;8.10;;;4.68;;
27857;SDS011;16852;51.446;6.528;2024-03-17T10:33:40;9.35;;;5.20;;
27857;SDS011;16852;51.446;6.528;2024-03-17T10:35:42;7.20;;;4.47;;
27857;SDS011;16852;51.446;6.528;2024-03-17T10:37:56;7.95;;;4.60;;
27857;SDS011;16852;51.446;6.528;2024-03-17T10:40:02;8.48;;;4.60;;
27857;SDS011;16852;51.446;6.528;2024-03-17T10:42:05;8.70;;;4.72;;
27857;SDS011;16852;51.446;6.528;2024-03-17T10:44:07;5.95;;;4.28;;
27857;SDS011;16852;51.446;6.528;2024-03-17T10:46:08;7.97;;;4.40;;
27857;SDS011;16852;51.446;6.528;2024-03-17T10:48:10;6.15;;;4.32;;
27857;SDS011;16852;51.446;6.528;2024-03-17T10:50:22;8.27;;;4.57;;
27857;SDS011;16852;51.446;6.528;2024-03-17T10:52:26;7.45;;;4.90;;
27857;SDS011;16852;51.446;6.528;2024-03-17T10:54:28;6.03;;;4.32;;
27857;SDS011;16852;51.446;6.528;2024-03-17T10:56:29;6.22;;;4.00;;
27857;SDS011;16852;51.446;6.528;2024-03-17T10:58:34;8.02;;;4.60;;
27857;SDS011;16852;51.446;6.528;2024-03-17T11:00:50;6.68;;;4.30;;
27857;SDS011;16852;51.446;6.528;2024-03-17T11:02:52;5.68;;;4.10;;
27857;SDS011;16852;51.446;6.528;2024-03-17T11:04:56;6.03;;;3.75;;
27857;SDS011;16852;51.446;6.528;2024-03-17T11:06:58;4.60;;;3.50;;
27857;SDS011;16852;51.446;6.528;2024-03-17T11:09:00;6.87;;;3.30;;
27857;SDS011;16852;51.446;6.528;2024-03-17T11:11:04;4.72;;;3.40;;
27857;SDS011;16852;51.446;6.528;2024-03-17T11:13:04;5.13;;;3.67;;
27857;SDS011;16852;51.446;6.528;2024-03-17T11:17:26;7.13;;;3.80;;
27857;SDS011;16852;51.446;6.528;2024-03-17T11:19:27;7.70;;;4.55;;
27857;SDS011;16852;51.446;6.528;2024-03-17T11:21:27;5.43;;;3.72;;
27857;SDS011;16852;51.446;6.528;2024-03-17T11:23:29;7.45;;;4.30;;
27857;SDS011;16852;51.446;6.528;2024-03-17T11:27:40;6.15;;;3.97;;
27857;SDS011;16852;51.446;6.528;2024-03-17T11:29:41;7.10;;;4.43;;
27857;SDS011;16852;51.446;6.528;2024-03-17T11:31:42;7.03;;;4.00;;
27857;SDS011;16852;51.446;6.528;2024-03-17T11:33:52;6.25;;;4.13;;
27857;SDS011;16852;51.446;6.528;2024-03-17T11:36:29;8.60;;;4.30;;
27857;SDS011;16852;51.446;6.528;2024-03-17T11:41:11;6.57;;;4.38;;
27857;SDS011;16852;51.446;6.528;2024-03-17T11:43:32;6.22;;;4.40;;
27857;SDS011;16852;51.446;6.528;2024-03-17T11:45:34;9.67;;;5.10;;
27857;SDS011;16852;51.446;6.528;2024-03-17T11:47:36;7.80;;;4.63;;
27857;SDS011;16852;51.446;6.528;2024-03-17T11:51:39;6.68;;;4.53;;
27857;SDS011;16852;51.446;6.528;2024-03-17T11:53:42;10.40;;;5.47;;
27857;SDS011;16852;51.446;6.528;2024-03-17T11:55:47;8.07;;;5.00;;
27857;SDS011;16852;51.446;6.528;2024-03-17T11:57:55;9.48;;;5.15;;
27857;SDS011;16852;51.446;6.528;2024-03-17T11:59:56;8.45;;;4.70;;
27857;SDS011;16852;51.446;6.528;2024-03-17T12:01:57;8.15;;;4.47;;
27857;SDS011;16852;51.446;6.528;2024-03-17T12:03:58;8.32;;;5.18;;
27857;SDS011;16852;51.446;6.528;2024-03-17T12:06:04;9.95;;;4.07;;
27857;SDS011;16852;51.446;6.528;2024-03-17T12:08:06;9.45;;;5.80;;
27857;SDS011;16852;51.446;6.528;2024-03-17T12:10:20;10.30;;;6.13;;
27857;SDS011;16852;51.446;6.528;2024-03-17T12:12:21;8.20;;;5.53;;
27857;SDS011;16852;51.446;6.528;2024-03-17T12:14:23;7.55;;;5.25;;
27857;SDS011;16852;51.446;6.528;2024-03-17T12:16:25;9.57;;;5.80;;
27857;SDS011;16852;51.446;6.528;2024-03-17T12:18:26;10.27;;;5.43;;
27857;SDS011;16852;51.446;6.528;2024-03-17T12:20:29;8.43;;;5.32;;
27857;SDS011;16852;51.446;6.528;2024-03-17T12:22:30;7.63;;;4.57;;
27857;SDS011;16852;51.446;6.528;2024-03-17T12:24:36;6.10;;;4.30;;
27857;SDS011;16852;51.446;6.528;2024-03-17T12:26:37;8.52;;;4.97;;
27857;SDS011;16852;51.446;6.528;2024-03-17T12:28:38;8.05;;;4.38;;
27857;SDS011;16852;51.446;6.528;2024-03-17T12:30:39;5.03;;;3.97;;
27857;SDS011;16852;51.446;6.528;2024-03-17T12:32:40;4.35;;;3.50;;
27857;SDS011;16852;51.446;6.528;2024-03-17T12:34:42;5.80;;;4.40;;